createdAt,value
2023-02-24T00:02:00.294Z,44.40
2023-02-24T00:04:33.324Z,44.80
2023-02-24T00:07:02.518Z,45.00
2023-02-24T00:09:33.226Z,44.70
2023-02-24T00:12:04.789Z,44.90
2023-02-24T00:14:34.661Z,45.30
2023-02-24T00:17:08.022Z,45.80
2023-02-24T00:19:38.920Z,45.50
2023-02-24T00:22:09.521Z,46.40
2023-02-24T00:24:38.165Z,46.40
2023-02-24T00:27:11.074Z,46.40
2023-02-24T00:29:40.355Z,46.00
2023-02-24T00:32:12.625Z,46.70
2023-02-24T00:34:43.543Z,46.40
2023-02-24T00:37:12.118Z,45.70
2023-02-24T00:39:41.485Z,46.10
2023-02-24T00:42:12.121Z,46.30
2023-02-24T00:44:45.086Z,46.40
2023-02-24T00:47:14.200Z,46.20
2023-02-24T00:49:44.288Z,45.80
2023-02-24T00:52:14.586Z,45.50
2023-02-24T00:54:47.635Z,45.70
2023-02-24T00:57:21.422Z,45.80
2023-02-24T00:59:51.699Z,45.40
2023-02-24T01:02:20.363Z,45.50
2023-02-24T01:04:51.052Z,45.00
2023-02-24T01:07:19.446Z,44.40
2023-02-24T01:09:51.770Z,44.20
2023-02-24T01:12:40.102Z,44.00
2023-02-24T01:15:12.695Z,43.90
2023-02-24T01:17:41.114Z,43.80
2023-02-24T01:20:18.434Z,44.00
2023-02-24T01:22:48.736Z,44.00
2023-02-24T01:25:20.037Z,44.00
2023-02-24T01:27:48.407Z,44.20
2023-02-24T01:30:18.328Z,44.10
2023-02-24T01:32:48.088Z,43.70
2023-02-24T01:35:18.681Z,43.60
2023-02-24T01:37:46.896Z,43.50
2023-02-24T01:40:21.489Z,43.40
2023-02-24T01:42:50.602Z,43.20
2023-02-24T01:45:29.646Z,43.00
2023-02-24T01:48:01.686Z,43.50
2023-02-24T01:50:34.132Z,44.00
2023-02-24T01:53:05.779Z,44.20
2023-02-24T01:55:36.902Z,44.30
2023-02-24T01:58:09.701Z,44.30
2023-02-24T02:00:38.916Z,44.20
2023-02-24T02:03:15.428Z,44.60
2023-02-24T02:05:48.746Z,44.20
2023-02-24T02:08:19.578Z,43.70
2023-02-24T02:10:48.830Z,43.90
2023-02-24T02:13:24.024Z,44.00
2023-02-24T02:16:02.867Z,43.90
2023-02-24T02:18:42.945Z,43.90
2023-02-24T02:21:56.289Z,43.70
2023-02-24T02:24:35.775Z,43.50
2023-02-24T02:27:30.049Z,43.80
2023-02-24T02:30:28.794Z,43.80
2023-02-24T02:33:33.752Z,44.00
2023-02-24T02:36:14.296Z,43.80
2023-02-24T02:38:52.724Z,43.60
2023-02-24T02:41:28.517Z,43.60
2023-02-24T02:44:07.447Z,43.50
2023-02-24T02:46:42.334Z,43.80
2023-02-24T02:49:19.042Z,43.90
2023-02-24T02:51:52.748Z,44.50
2023-02-24T02:54:28.273Z,44.00
2023-02-24T02:57:03.811Z,43.80
2023-02-24T02:59:35.346Z,43.20
2023-02-24T03:02:14.940Z,42.90
2023-02-24T03:04:51.643Z,42.60
2023-02-24T03:07:31.076Z,42.30
2023-02-24T03:10:04.401Z,41.90
2023-02-24T03:12:37.283Z,41.80
2023-02-24T03:15:11.700Z,41.80
2023-02-24T03:17:45.359Z,41.80
2023-02-24T03:20:22.002Z,41.90
2023-02-24T03:22:57.752Z,41.60
2023-02-24T03:25:30.181Z,41.70
2023-02-24T03:28:05.795Z,41.70
2023-02-24T03:30:41.801Z,41.60
2023-02-24T03:33:16.721Z,41.70
2023-02-24T03:35:46.416Z,41.80
2023-02-24T03:38:19.674Z,41.80
2023-02-24T03:40:48.273Z,42.00
2023-02-24T03:43:27.897Z,42.40
2023-02-24T03:45:57.923Z,42.40
2023-02-24T03:48:27.944Z,42.50
2023-02-24T03:51:00.512Z,42.70
2023-02-24T03:54:01.449Z,42.70
2023-02-24T03:56:40.933Z,43.10
2023-02-24T03:59:23.744Z,43.60
2023-02-24T04:01:58.009Z,43.50
2023-02-24T04:04:37.183Z,44.00
2023-02-24T04:07:19.081Z,43.60
2023-02-24T04:09:59.254Z,43.90
2023-02-24T04:12:31.399Z,43.60
2023-02-24T04:15:10.375Z,43.50
2023-02-24T04:17:44.719Z,43.40
2023-02-24T04:20:18.884Z,43.00
2023-02-24T04:22:54.956Z,43.20
2023-02-24T04:25:27.559Z,43.10
2023-02-24T04:28:00.647Z,43.10
2023-02-24T04:30:35.214Z,43.20
2023-02-24T04:33:04.441Z,43.10
2023-02-24T04:35:33.065Z,43.00
2023-02-24T04:38:02.219Z,43.80
2023-02-24T04:40:33.038Z,43.90
2023-02-24T04:43:01.315Z,44.10
2023-02-24T04:45:31.779Z,44.90
2023-02-24T04:48:02.215Z,44.50
2023-02-24T04:50:33.346Z,44.60
2023-02-24T04:53:08.789Z,44.00
2023-02-24T04:55:40.897Z,43.80
2023-02-24T04:58:12.177Z,43.80
2023-02-24T05:00:41.935Z,43.80
2023-02-24T05:03:13.699Z,43.70
2023-02-24T05:05:51.822Z,43.70
2023-02-24T05:08:22.054Z,43.80
2023-02-24T05:10:52.370Z,43.80
2023-02-24T05:13:26.225Z,43.70
2023-02-24T05:15:56.030Z,43.80
2023-02-24T05:18:24.923Z,43.80
2023-02-24T05:21:12.481Z,43.80
2023-02-24T05:23:44.297Z,44.30
2023-02-24T05:26:16.808Z,44.70
2023-02-24T05:28:49.046Z,44.80
2023-02-24T05:31:19.879Z,44.60
2023-02-24T05:33:50.483Z,44.20
2023-02-24T05:36:20.141Z,44.30
2023-02-24T05:38:56.542Z,44.00
2023-02-24T05:41:32.517Z,43.90
2023-02-24T05:44:04.715Z,43.80
2023-02-24T05:46:34.877Z,43.50
2023-02-24T05:49:08.635Z,43.60
2023-02-24T05:51:39.088Z,43.60
2023-02-24T05:54:09.536Z,43.50
2023-02-24T05:56:45.135Z,43.80
2023-02-24T05:59:18.258Z,43.70
2023-02-24T06:01:46.646Z,44.20
2023-02-24T06:04:27.840Z,44.30
2023-02-24T06:06:56.140Z,44.30
2023-02-24T06:09:24.310Z,44.60
2023-02-24T06:11:53.911Z,45.00
2023-02-24T06:14:22.727Z,45.50
2023-02-24T06:16:51.022Z,45.60
2023-02-24T06:19:20.641Z,45.70
2023-02-24T06:21:49.170Z,46.00
2023-02-24T06:24:18.565Z,46.10
2023-02-24T06:26:46.949Z,46.20
2023-02-24T06:29:18.243Z,46.50
2023-02-24T06:31:48.639Z,46.30
2023-02-24T06:34:18.371Z,46.30
2023-02-24T06:36:47.005Z,46.00
2023-02-24T06:39:16.973Z,46.00
2023-02-24T06:41:52.849Z,45.80
2023-02-24T06:44:24.298Z,45.80
2023-02-24T06:46:52.624Z,45.70
2023-02-24T06:49:21.289Z,45.70
2023-02-24T06:51:50.306Z,45.70
2023-02-24T06:54:19.110Z,46.10
2023-02-24T06:56:47.832Z,45.60
2023-02-24T06:59:21.846Z,45.60
2023-02-24T07:01:53.915Z,45.70
2023-02-24T07:04:28.247Z,45.50
2023-02-24T07:07:03.230Z,45.50
2023-02-24T07:09:33.232Z,45.20
2023-02-24T07:12:02.960Z,44.90
2023-02-24T07:14:32.040Z,46.10
2023-02-24T07:17:01.921Z,45.30
2023-02-24T07:19:32.554Z,45.50
2023-02-24T07:22:03.492Z,45.60
2023-02-24T07:24:37.155Z,45.40
2023-02-24T07:27:07.191Z,45.20
2023-02-24T07:29:37.684Z,45.30
2023-02-24T07:32:09.673Z,45.70
2023-02-24T07:34:40.101Z,45.90
2023-02-24T07:37:09.552Z,47.00
2023-02-24T07:39:43.026Z,46.70
2023-02-24T07:42:13.780Z,47.20
2023-02-24T07:44:48.992Z,47.40
2023-02-24T07:47:19.175Z,47.70
2023-02-24T07:49:51.202Z,47.70
2023-02-24T07:52:19.540Z,47.90
2023-02-24T07:54:50.683Z,47.50
2023-02-24T07:57:19.061Z,48.20
2023-02-24T07:59:50.081Z,48.50
2023-02-24T08:02:19.691Z,48.40
2023-02-24T08:04:51.517Z,48.40
2023-02-24T08:07:25.667Z,48.10
2023-02-24T08:10:24.216Z,48.90
2023-02-24T08:12:55.630Z,48.70
2023-02-24T08:15:25.035Z,49.00
2023-02-24T08:18:02.466Z,50.10
2023-02-24T08:20:51.300Z,50.40
2023-02-24T08:23:19.731Z,50.30
2023-02-24T08:25:47.956Z,49.60
2023-02-24T08:28:16.300Z,49.00
2023-02-24T08:30:46.499Z,48.20
2023-02-24T08:33:21.195Z,47.80
2023-02-24T08:35:57.913Z,47.90
2023-02-24T08:38:28.429Z,47.70
2023-02-24T08:40:59.290Z,47.50
2023-02-24T08:43:33.406Z,47.80
2023-02-24T08:46:18.360Z,48.60
2023-02-24T08:48:49.977Z,48.20
2023-02-24T08:51:22.821Z,47.30
2023-02-24T08:53:53.717Z,47.60
2023-02-24T08:56:27.577Z,47.80
2023-02-24T08:58:58.490Z,48.50
2023-02-24T09:01:34.639Z,49.40
2023-02-24T09:04:07.502Z,49.70
2023-02-24T09:06:39.734Z,49.60
2023-02-24T09:09:22.464Z,49.20
2023-02-24T09:11:56.090Z,50.00
2023-02-24T09:14:28.753Z,50.70
2023-02-24T09:17:06.180Z,50.90
2023-02-24T09:19:58.017Z,51.30
2023-02-24T09:22:40.865Z,51.80
2023-02-24T09:25:23.949Z,51.50
2023-02-24T09:27:55.750Z,50.90
2023-02-24T09:30:39.287Z,50.90
2023-02-24T09:33:21.133Z,50.70
2023-02-24T09:36:10.759Z,50.80
2023-02-24T09:38:58.338Z,49.80
2023-02-24T09:41:34.065Z,50.20
2023-02-24T09:44:07.843Z,50.50
2023-02-24T09:46:42.315Z,50.60
2023-02-24T09:49:18.014Z,50.90
2023-02-24T09:51:56.735Z,51.10
2023-02-24T09:54:31.788Z,51.60
2023-02-24T09:57:09.252Z,51.60
2023-02-24T10:00:00.893Z,52.40
2023-02-24T10:02:44.333Z,53.40
2023-02-24T10:05:27.264Z,54.80
2023-02-24T10:07:59.214Z,54.80
2023-02-24T10:10:38.856Z,55.70
2023-02-24T10:13:15.321Z,56.20
2023-02-24T10:15:58.993Z,56.40
2023-02-24T10:18:34.110Z,57.30
2023-02-24T10:21:18.164Z,58.00
2023-02-24T10:24:01.780Z,57.90
2023-02-24T10:26:51.298Z,57.60
2023-02-24T10:29:34.531Z,57.30
2023-02-24T10:32:23.475Z,57.60
2023-02-24T10:34:54.782Z,57.90
2023-02-24T10:37:29.501Z,58.10
2023-02-24T10:40:09.777Z,57.60
2023-02-24T10:42:45.760Z,56.70
2023-02-24T10:45:18.287Z,55.30
2023-02-24T10:47:56.675Z,54.60
2023-02-24T10:50:29.781Z,54.00
2023-02-24T10:53:26.512Z,53.50
2023-02-24T10:56:23.422Z,53.40
2023-02-24T10:59:20.562Z,54.70
2023-02-24T11:01:59.210Z,55.30
2023-02-24T11:04:53.830Z,55.90
2023-02-24T11:07:33.357Z,54.70
2023-02-24T11:10:12.081Z,54.60
2023-02-24T11:13:10.660Z,55.30
2023-02-24T11:16:00.874Z,55.70
2023-02-24T11:18:31.071Z,55.30
2023-02-24T11:21:02.136Z,55.00
2023-02-24T11:23:35.657Z,55.80
2023-02-24T11:26:08.264Z,56.40
2023-02-24T11:28:59.519Z,56.60
2023-02-24T11:31:45.933Z,55.70
2023-02-24T11:34:24.585Z,54.90
2023-02-24T11:37:02.728Z,55.00
2023-02-24T11:39:53.530Z,55.20
2023-02-24T11:42:28.047Z,55.00
2023-02-24T11:45:06.577Z,55.10
2023-02-24T11:47:39.881Z,55.60
2023-02-24T11:50:24.895Z,55.30
2023-02-24T11:52:55.405Z,55.10
2023-02-24T11:55:34.999Z,55.00
2023-02-24T11:58:08.492Z,53.50
2023-02-24T12:00:43.164Z,52.90
2023-02-24T12:03:19.290Z,53.00
2023-02-24T12:05:53.746Z,54.00
2023-02-24T12:08:29.263Z,53.90
2023-02-24T12:11:07.025Z,53.20
2023-02-24T12:13:41.269Z,54.50
2023-02-24T12:16:18.459Z,55.10
2023-02-24T12:18:51.458Z,55.30
2023-02-24T12:21:25.158Z,53.80
2023-02-24T12:23:54.636Z,53.50
2023-02-24T12:26:27.249Z,54.30
2023-02-24T12:29:30.139Z,54.50
2023-02-24T12:32:10.790Z,54.80
2023-02-24T12:34:49.958Z,55.20
2023-02-24T12:37:30.824Z,56.10
2023-02-24T12:40:13.737Z,56.30
2023-02-24T12:42:52.545Z,56.60
2023-02-24T12:45:27.660Z,56.40
2023-02-24T12:48:08.045Z,55.90
2023-02-24T12:50:46.805Z,55.30
2023-02-24T12:53:21.618Z,55.40
2023-02-24T12:55:59.177Z,55.30
2023-02-24T12:58:30.144Z,54.70
2023-02-24T13:01:10.318Z,54.50
2023-02-24T13:03:58.905Z,54.00
2023-02-24T13:06:35.338Z,54.30
2023-02-24T13:09:12.552Z,53.50
2023-02-24T13:11:47.187Z,52.90
2023-02-24T13:14:22.264Z,53.30
2023-02-24T13:16:51.517Z,54.20
2023-02-24T13:19:29.016Z,53.80
2023-02-24T13:22:01.928Z,54.20
2023-02-24T13:24:30.550Z,54.40
2023-02-24T13:27:20.368Z,54.40
2023-02-24T13:29:50.845Z,54.50
2023-02-24T13:32:29.587Z,53.60
2023-02-24T13:35:01.196Z,53.80
2023-02-24T13:37:32.245Z,54.50
2023-02-24T13:40:00.436Z,54.20
2023-02-24T13:42:30.587Z,54.20
2023-02-24T13:45:06.267Z,53.20
2023-02-24T13:48:13.058Z,52.90
2023-02-24T13:51:11.432Z,52.10
2023-02-24T13:53:58.782Z,52.20
2023-02-24T13:56:39.225Z,52.30
2023-02-24T13:59:21.798Z,52.20
2023-02-24T14:01:52.514Z,53.20
2023-02-24T14:04:27.841Z,53.20
2023-02-24T14:07:03.153Z,52.70
2023-02-24T14:09:35.057Z,51.70
2023-02-24T14:12:08.277Z,51.10
2023-02-24T14:14:36.797Z,50.30
2023-02-24T14:17:09.571Z,50.50
2023-02-24T14:19:37.798Z,49.70
2023-02-24T14:22:07.390Z,49.60
2023-02-24T14:24:35.548Z,48.90
2023-02-24T14:27:05.471Z,48.00
2023-02-24T14:29:44.067Z,47.40
2023-02-24T14:32:22.099Z,46.30
2023-02-24T14:34:50.803Z,45.70
2023-02-24T14:37:25.955Z,45.10
2023-02-24T14:39:56.756Z,45.10
2023-02-24T14:42:25.647Z,44.80
2023-02-24T14:44:55.966Z,44.80
2023-02-24T14:47:26.025Z,44.80
2023-02-24T14:49:56.900Z,45.50
2023-02-24T14:52:33.182Z,45.60
2023-02-24T14:55:06.378Z,45.90
2023-02-24T14:57:39.637Z,46.90
2023-02-24T15:00:17.355Z,47.80
2023-02-24T15:02:51.623Z,48.00
2023-02-24T15:05:20.192Z,49.10
2023-02-24T15:07:51.786Z,49.10
2023-02-24T15:10:26.402Z,49.50
2023-02-24T15:13:00.719Z,49.20
2023-02-24T15:15:34.157Z,49.40
2023-02-24T15:18:10.476Z,49.20
2023-02-24T15:20:41.985Z,49.40
2023-02-24T15:23:27.242Z,48.50
2023-02-24T15:25:55.592Z,49.70
2023-02-24T15:28:26.766Z,50.10
2023-02-24T15:31:02.812Z,49.90
2023-02-24T15:33:36.308Z,50.20
2023-02-24T15:36:11.209Z,49.50
2023-02-24T15:38:43.763Z,50.10
2023-02-24T15:41:13.498Z,50.30
2023-02-24T15:43:47.756Z,50.80
2023-02-24T15:46:25.175Z,51.40
2023-02-24T15:48:55.547Z,52.10
2023-02-24T15:51:34.966Z,51.90
2023-02-24T15:54:06.998Z,51.90
2023-02-24T15:56:36.491Z,52.50
2023-02-24T15:59:06.000Z,52.10
2023-02-24T16:01:34.929Z,51.10
2023-02-24T16:04:04.669Z,50.60
2023-02-24T16:06:33.959Z,49.70
2023-02-24T16:09:05.234Z,49.60
2023-02-24T16:11:42.050Z,49.10
2023-02-24T16:14:13.980Z,48.30
2023-02-24T16:16:42.419Z,48.20
2023-02-24T16:19:14.546Z,47.80
2023-02-24T16:21:42.997Z,47.70
2023-02-24T16:24:12.250Z,47.60
2023-02-24T16:26:44.191Z,47.40
2023-02-24T16:29:16.309Z,47.10
2023-02-24T16:31:44.765Z,46.60
2023-02-24T16:34:16.542Z,47.20
2023-02-24T16:36:44.961Z,46.90
2023-02-24T16:39:14.939Z,46.80
2023-02-24T16:41:44.602Z,47.00
2023-02-24T16:44:14.210Z,46.70
2023-02-24T16:46:46.166Z,46.90
2023-02-24T16:49:19.486Z,46.50
2023-02-24T16:51:50.477Z,46.40
2023-02-24T16:54:21.820Z,46.50
2023-02-24T16:56:52.691Z,46.40
2023-02-24T16:59:21.169Z,47.60
2023-02-24T17:01:49.606Z,47.70
2023-02-24T17:04:18.114Z,48.30
2023-02-24T17:06:46.438Z,47.80
2023-02-24T17:09:15.654Z,47.40
2023-02-24T17:11:44.508Z,47.30
2023-02-24T17:14:17.164Z,47.40
2023-02-24T17:16:48.418Z,47.30
2023-02-24T17:19:17.744Z,47.30
2023-02-24T17:21:46.953Z,47.00
2023-02-24T17:24:17.470Z,46.80
2023-02-24T17:26:48.766Z,46.60
2023-02-24T17:29:20.325Z,46.90
2023-02-24T17:31:48.662Z,47.00
2023-02-24T17:34:16.962Z,46.80
2023-02-24T17:36:47.223Z,46.60
2023-02-24T17:39:15.529Z,46.40
2023-02-24T17:41:43.682Z,45.90
2023-02-24T17:44:11.867Z,45.70
2023-02-24T17:46:41.494Z,45.80
2023-02-24T17:49:10.059Z,45.70
2023-02-24T17:51:38.244Z,45.80
2023-02-24T17:54:06.789Z,46.10
2023-02-24T17:56:35.110Z,46.20
2023-02-24T17:59:03.287Z,45.80
2023-02-24T18:01:31.595Z,46.20
2023-02-24T18:04:01.244Z,46.10
2023-02-24T18:06:29.564Z,46.40
2023-02-24T18:08:57.734Z,46.60
2023-02-24T18:11:25.954Z,47.20
2023-02-24T18:13:55.197Z,46.60
2023-02-24T18:16:23.886Z,46.80
2023-02-24T18:18:52.821Z,46.30
2023-02-24T18:21:24.024Z,47.10
2023-02-24T18:23:55.026Z,46.40
2023-02-24T18:26:25.582Z,46.50
2023-02-24T18:28:54.438Z,46.80
2023-02-24T18:31:25.377Z,46.90
2023-02-24T18:33:54.083Z,47.10
2023-02-24T18:36:24.306Z,48.20
2023-02-24T18:38:54.988Z,48.20
2023-02-24T18:41:24.369Z,49.40
2023-02-24T18:43:54.468Z,50.50
2023-02-24T18:46:29.425Z,50.50
2023-02-24T18:49:00.824Z,50.90
2023-02-24T18:51:30.718Z,50.50
2023-02-24T18:54:04.626Z,49.50
2023-02-24T18:56:35.669Z,48.70
2023-02-24T18:59:07.624Z,48.40
2023-02-24T19:01:39.603Z,47.90
2023-02-24T19:04:10.818Z,47.20
2023-02-24T19:06:41.525Z,46.40
2023-02-24T19:09:12.244Z,46.30
2023-02-24T19:11:43.611Z,45.70
2023-02-24T19:14:13.876Z,45.50
2023-02-24T19:16:42.845Z,45.30
2023-02-24T19:19:15.130Z,45.00
2023-02-24T19:21:45.898Z,45.30
2023-02-24T19:24:16.421Z,45.00
2023-02-24T19:26:47.386Z,45.20
2023-02-24T19:29:16.311Z,45.30
2023-02-24T19:31:45.733Z,46.00
2023-02-24T19:34:15.737Z,46.20
2023-02-24T19:36:45.306Z,46.20
2023-02-24T19:39:15.394Z,47.40
2023-02-24T19:41:43.623Z,47.30
2023-02-24T19:44:12.052Z,47.70
2023-02-24T19:46:41.461Z,47.20
2023-02-24T19:49:09.658Z,47.60
2023-02-24T19:51:38.174Z,47.90
2023-02-24T19:54:08.823Z,47.70
2023-02-24T19:56:37.755Z,48.70
2023-02-24T19:59:11.203Z,48.30
2023-02-24T20:01:39.469Z,48.60
2023-02-24T20:04:08.433Z,48.60
2023-02-24T20:06:38.255Z,47.50
2023-02-24T20:09:09.835Z,47.30
2023-02-24T20:11:40.530Z,48.50
2023-02-24T20:14:10.418Z,48.30
2023-02-24T20:16:38.963Z,49.60
2023-02-24T20:19:09.363Z,48.70
2023-02-24T20:21:38.510Z,49.10
2023-02-24T20:24:13.230Z,49.50
2023-02-24T20:26:50.067Z,49.00
2023-02-24T20:29:20.623Z,48.40
2023-02-24T20:31:49.781Z,47.50
2023-02-24T20:34:18.196Z,47.50
2023-02-24T20:36:54.054Z,47.20
2023-02-24T20:39:25.179Z,46.80
2023-02-24T20:41:55.800Z,46.20
2023-02-24T20:44:24.610Z,46.00
2023-02-24T20:46:52.910Z,46.10
2023-02-24T20:49:21.216Z,45.90
2023-02-24T20:51:49.703Z,45.90
2023-02-24T20:54:18.254Z,45.90
2023-02-24T20:56:48.540Z,46.10
2023-02-24T20:59:19.117Z,45.70
2023-02-24T21:01:48.970Z,45.40
2023-02-24T21:04:20.118Z,46.10
2023-02-24T21:06:48.956Z,46.10
2023-02-24T21:09:17.525Z,46.50
2023-02-24T21:11:47.178Z,46.30
2023-02-24T21:14:16.898Z,47.30
2023-02-24T21:16:46.817Z,47.10
2023-02-24T21:19:15.122Z,48.30
2023-02-24T21:21:43.311Z,47.50
2023-02-24T21:24:11.561Z,46.90
2023-02-24T21:26:39.750Z,47.50
2023-02-24T21:29:09.530Z,47.60
2023-02-24T21:31:37.942Z,47.50
2023-02-24T21:34:06.896Z,46.70
2023-02-24T21:36:35.073Z,46.70
2023-02-24T21:39:05.153Z,46.30
2023-02-24T21:41:35.552Z,46.20
2023-02-24T21:44:03.882Z,46.30
2023-02-24T21:46:33.501Z,46.10
2023-02-24T21:49:01.884Z,47.40
2023-02-24T21:51:30.405Z,46.90
2023-02-24T21:53:58.951Z,46.90
2023-02-24T21:56:29.150Z,46.90
2023-02-24T21:59:02.111Z,47.50
2023-02-24T22:01:36.567Z,47.50
2023-02-24T22:04:07.831Z,48.10
2023-02-24T22:06:37.950Z,48.20
2023-02-24T22:09:08.078Z,47.60
2023-02-24T22:11:38.077Z,47.70
2023-02-24T22:14:09.274Z,47.70
2023-02-24T22:16:39.497Z,48.10
2023-02-24T22:19:08.359Z,47.40
2023-02-24T22:21:39.557Z,47.20
2023-02-24T22:24:09.299Z,48.20
2023-02-24T22:26:37.606Z,48.70
2023-02-24T22:29:08.930Z,50.40
2023-02-24T22:31:39.543Z,49.60
2023-02-24T22:34:08.812Z,49.70
2023-02-24T22:36:37.768Z,50.20
2023-02-24T22:39:07.195Z,51.70
2023-02-24T22:41:38.163Z,53.70
2023-02-24T22:44:07.285Z,55.10
2023-02-24T22:46:40.198Z,55.10
2023-02-24T22:49:08.471Z,55.10
2023-02-24T22:51:37.048Z,55.90
2023-02-24T22:54:09.038Z,55.60
2023-02-24T22:56:37.844Z,56.00
2023-02-24T22:59:06.078Z,56.30
2023-02-24T23:01:36.334Z,55.50
2023-02-24T23:04:09.181Z,55.30
2023-02-24T23:06:37.796Z,53.90
2023-02-24T23:09:07.541Z,53.20
2023-02-24T23:11:38.616Z,51.80
2023-02-24T23:14:09.919Z,50.80
2023-02-24T23:16:39.196Z,49.90
2023-02-24T23:19:12.879Z,48.90
2023-02-24T23:21:43.007Z,48.20
2023-02-24T23:24:13.844Z,47.40
2023-02-24T23:26:45.644Z,47.80
2023-02-24T23:29:15.968Z,48.60
2023-02-24T23:31:45.714Z,48.80
2023-02-24T23:34:15.973Z,49.70
2023-02-24T23:36:47.846Z,52.50
2023-02-24T23:39:20.373Z,55.20
2023-02-24T23:41:49.436Z,57.30
2023-02-24T23:44:17.706Z,59.00
2023-02-24T23:46:46.591Z,59.90
2023-02-24T23:49:16.214Z,60.90
2023-02-24T23:51:48.990Z,59.90
2023-02-24T23:54:17.958Z,59.30
2023-02-24T23:56:49.722Z,59.60
2023-02-24T23:59:17.920Z,58.70
